sensor_id;sensor_type;location;lat;lon;timestamp;P1;durP1;ratioP1;P2;durP2;ratioP2
45314;SDS011;31051;51.540;5.852;2023-07-02T00:08:45;9.4;;;5.1;;
45314;SDS011;31051;51.540;5.852;2023-07-02T00:21:44;10.2;;;5.9;;
45314;SDS011;31051;51.540;5.852;2023-07-02T00:34:42;11.7;;;6.4;;
45314;SDS011;31051;51.540;5.852;2023-07-02T00:47:31;12.5;;;7.1;;
45314;SDS011;31051;51.540;5.852;2023-07-02T01:00:20;12.8;;;7.8;;
45314;SDS011;31051;51.540;5.852;2023-07-02T01:13:19;13.7;;;8.1;;
45314;SDS011;31051;51.540;5.852;2023-07-02T01:26:19;14.6;;;9.1;;
45314;SDS011;31051;51.540;5.852;2023-07-02T01:39:18;16.7;;;10.2;;
45314;SDS011;31051;51.540;5.852;2023-07-02T01:52:17;17.6;;;11.6;;
45314;SDS011;31051;51.540;5.852;2023-07-02T02:05:17;20.1;;;12.4;;
45314;SDS011;31051;51.540;5.852;2023-07-02T02:18:16;20.6;;;13.0;;
45314;SDS011;31051;51.540;5.852;2023-07-02T02:31:16;20.2;;;14.1;;
45314;SDS011;31051;51.540;5.852;2023-07-02T02:44:15;21.9;;;13.9;;
45314;SDS011;31051;51.540;5.852;2023-07-02T02:57:14;22.4;;;13.9;;
45314;SDS011;31051;51.540;5.852;2023-07-02T03:10:13;22.9;;;14.4;;
45314;SDS011;31051;51.540;5.852;2023-07-02T03:23:02;22.5;;;14.8;;
45314;SDS011;31051;51.540;5.852;2023-07-02T03:36:01;22.0;;;15.2;;
45314;SDS011;31051;51.540;5.852;2023-07-02T03:49:01;23.7;;;15.2;;
45314;SDS011;31051;51.540;5.852;2023-07-02T04:02:00;23.7;;;14.7;;
45314;SDS011;31051;51.540;5.852;2023-07-02T04:14:59;20.2;;;13.6;;
45314;SDS011;31051;51.540;5.852;2023-07-02T04:27:59;19.5;;;12.9;;
45314;SDS011;31051;51.540;5.852;2023-07-02T04:40:58;20.4;;;13.3;;
45314;SDS011;31051;51.540;5.852;2023-07-02T04:53:57;19.9;;;12.0;;
45314;SDS011;31051;51.540;5.852;2023-07-02T05:06:57;16.7;;;10.4;;
45314;SDS011;31051;51.540;5.852;2023-07-02T05:19:56;17.0;;;9.8;;
45314;SDS011;31051;51.540;5.852;2023-07-02T05:32:56;16.7;;;9.8;;
45314;SDS011;31051;51.540;5.852;2023-07-02T05:45:55;18.1;;;9.8;;
45314;SDS011;31051;51.540;5.852;2023-07-02T05:58:54;18.5;;;9.3;;
45314;SDS011;31051;51.540;5.852;2023-07-02T06:11:54;17.0;;;9.6;;
45314;SDS011;31051;51.540;5.852;2023-07-02T06:24:53;17.6;;;9.1;;
45314;SDS011;31051;51.540;5.852;2023-07-02T06:37:52;17.1;;;8.6;;
45314;SDS011;31051;51.540;5.852;2023-07-02T06:50:51;15.4;;;7.7;;
45314;SDS011;31051;51.540;5.852;2023-07-02T07:03:40;15.4;;;8.0;;
45314;SDS011;31051;51.540;5.852;2023-07-02T07:16:39;14.7;;;7.2;;
45314;SDS011;31051;51.540;5.852;2023-07-02T07:29:39;13.0;;;6.7;;
45314;SDS011;31051;51.540;5.852;2023-07-02T07:42:37;12.5;;;6.4;;
45314;SDS011;31051;51.540;5.852;2023-07-02T07:55:26;9.8;;;5.6;;
45314;SDS011;31051;51.540;5.852;2023-07-02T08:08:26;10.9;;;6.2;;
45314;SDS011;31051;51.540;5.852;2023-07-02T08:21:25;10.1;;;5.8;;
45314;SDS011;31051;51.540;5.852;2023-07-02T08:34:25;10.8;;;6.0;;
45314;SDS011;31051;51.540;5.852;2023-07-02T08:47:23;10.4;;;5.7;;
45314;SDS011;31051;51.540;5.852;2023-07-02T09:00:12;10.8;;;5.7;;
45314;SDS011;31051;51.540;5.852;2023-07-02T09:13:12;9.3;;;5.2;;
45314;SDS011;31051;51.540;5.852;2023-07-02T09:26:10;9.2;;;5.1;;
45314;SDS011;31051;51.540;5.852;2023-07-02T09:39:00;11.0;;;5.3;;
45314;SDS011;31051;51.540;5.852;2023-07-02T09:51:58;9.3;;;5.4;;
45314;SDS011;31051;51.540;5.852;2023-07-02T10:04:47;9.6;;;5.3;;
45314;SDS011;31051;51.540;5.852;2023-07-02T10:17:35;9.8;;;5.5;;
45314;SDS011;31051;51.540;5.852;2023-07-02T10:30:23;9.7;;;5.5;;
45314;SDS011;31051;51.540;5.852;2023-07-02T10:43:11;10.7;;;5.7;;
45314;SDS011;31051;51.540;5.852;2023-07-02T10:56:01;10.5;;;6.0;;
45314;SDS011;31051;51.540;5.852;2023-07-02T11:09:00;11.0;;;5.8;;
45314;SDS011;31051;51.540;5.852;2023-07-02T11:22:00;11.8;;;6.0;;
45314;SDS011;31051;51.540;5.852;2023-07-02T11:34:58;10.0;;;6.0;;
45314;SDS011;31051;51.540;5.852;2023-07-02T11:47:47;12.8;;;7.0;;
45314;SDS011;31051;51.540;5.852;2023-07-02T12:00:47;14.3;;;7.4;;
45314;SDS011;31051;51.540;5.852;2023-07-02T12:13:46;12.8;;;7.0;;
45314;SDS011;31051;51.540;5.852;2023-07-02T12:26:45;13.2;;;7.2;;
45314;SDS011;31051;51.540;5.852;2023-07-02T12:39:33;13.7;;;7.2;;
45314;SDS011;31051;51.540;5.852;2023-07-02T12:52:21;11.5;;;6.4;;
45314;SDS011;31051;51.540;5.852;2023-07-02T13:05:11;11.8;;;6.1;;
45314;SDS011;31051;51.540;5.852;2023-07-02T13:18:09;9.8;;;5.5;;
45314;SDS011;31051;51.540;5.852;2023-07-02T13:30:58;8.8;;;5.2;;
45314;SDS011;31051;51.540;5.852;2023-07-02T13:43:58;7.9;;;4.2;;
45314;SDS011;31051;51.540;5.852;2023-07-02T13:56:56;6.9;;;4.1;;
45314;SDS011;31051;51.540;5.852;2023-07-02T14:09:46;6.8;;;4.0;;
45314;SDS011;31051;51.540;5.852;2023-07-02T14:22:45;7.0;;;4.2;;
45314;SDS011;31051;51.540;5.852;2023-07-02T14:35:45;8.9;;;4.6;;
45314;SDS011;31051;51.540;5.852;2023-07-02T14:48:43;7.4;;;4.0;;
45314;SDS011;31051;51.540;5.852;2023-07-02T15:01:31;8.7;;;4.7;;
45314;SDS011;31051;51.540;5.852;2023-07-02T15:27:19;8.6;;;4.5;;
45314;SDS011;31051;51.540;5.852;2023-07-02T15:40:07;9.4;;;4.8;;
45314;SDS011;31051;51.540;5.852;2023-07-02T15:52:57;8.0;;;4.6;;
45314;SDS011;31051;51.540;5.852;2023-07-02T16:05:55;8.7;;;4.8;;
45314;SDS011;31051;51.540;5.852;2023-07-02T16:18:45;8.4;;;4.7;;
45314;SDS011;31051;51.540;5.852;2023-07-02T16:31:44;9.2;;;5.1;;
45314;SDS011;31051;51.540;5.852;2023-07-02T16:44:43;10.4;;;5.3;;
45314;SDS011;31051;51.540;5.852;2023-07-02T16:57:43;9.6;;;5.1;;
45314;SDS011;31051;51.540;5.852;2023-07-02T17:10:42;9.4;;;5.2;;
45314;SDS011;31051;51.540;5.852;2023-07-02T17:23:42;8.6;;;4.9;;
45314;SDS011;31051;51.540;5.852;2023-07-02T17:36:41;9.4;;;5.4;;
45314;SDS011;31051;51.540;5.852;2023-07-02T17:49:40;9.1;;;5.0;;
45314;SDS011;31051;51.540;5.852;2023-07-02T18:02:29;9.1;;;5.0;;
45314;SDS011;31051;51.540;5.852;2023-07-02T18:15:28;9.9;;;5.3;;
45314;SDS011;31051;51.540;5.852;2023-07-02T18:28:27;8.3;;;4.9;;
45314;SDS011;31051;51.540;5.852;2023-07-02T18:41:16;10.2;;;5.1;;
45314;SDS011;31051;51.540;5.852;2023-07-02T18:54:15;9.3;;;4.9;;
45314;SDS011;31051;51.540;5.852;2023-07-02T19:07:15;9.7;;;5.4;;
45314;SDS011;31051;51.540;5.852;2023-07-02T19:20:14;8.8;;;5.3;;
45314;SDS011;31051;51.540;5.852;2023-07-02T19:33:14;9.6;;;5.2;;
45314;SDS011;31051;51.540;5.852;2023-07-02T19:46:12;9.2;;;5.5;;
45314;SDS011;31051;51.540;5.852;2023-07-02T19:59:01;10.2;;;5.5;;
45314;SDS011;31051;51.540;5.852;2023-07-02T20:12:01;11.6;;;5.8;;
45314;SDS011;31051;51.540;5.852;2023-07-02T20:24:59;11.3;;;6.1;;
45314;SDS011;31051;51.540;5.852;2023-07-02T20:37:49;12.5;;;6.5;;
45314;SDS011;31051;51.540;5.852;2023-07-02T20:50:48;14.9;;;6.7;;
45314;SDS011;31051;51.540;5.852;2023-07-02T21:03:47;14.5;;;6.4;;
45314;SDS011;31051;51.540;5.852;2023-07-02T21:16:47;14.8;;;7.2;;
45314;SDS011;31051;51.540;5.852;2023-07-02T21:29:46;13.2;;;6.4;;
45314;SDS011;31051;51.540;5.852;2023-07-02T21:42:45;13.1;;;5.6;;
45314;SDS011;31051;51.540;5.852;2023-07-02T21:55:45;12.8;;;4.9;;
45314;SDS011;31051;51.540;5.852;2023-07-02T22:08:44;11.6;;;4.9;;
45314;SDS011;31051;51.540;5.852;2023-07-02T22:21:44;13.3;;;4.6;;
45314;SDS011;31051;51.540;5.852;2023-07-02T22:34:43;12.8;;;4.4;;
45314;SDS011;31051;51.540;5.852;2023-07-02T22:47:42;10.9;;;4.0;;
45314;SDS011;31051;51.540;5.852;2023-07-02T23:00:42;13.9;;;4.4;;
45314;SDS011;31051;51.540;5.852;2023-07-02T23:13:41;11.6;;;4.3;;
45314;SDS011;31051;51.540;5.852;2023-07-02T23:26:40;12.0;;;4.2;;
45314;SDS011;31051;51.540;5.852;2023-07-02T23:39:40;11.3;;;4.1;;
45314;SDS011;31051;51.540;5.852;2023-07-02T23:52:39;11.1;;;4.2;;
